Aeroporto :
LOGIN :

Iscrizione | Disclaimer

   EN    FR    IT 

 










Sommario :    VFR   VFR Marginale   IFR   IFR Intensivo   IFR Molto Intensivo
Visibilità : 
Base nubi : 
>= 8 km
>= 3000ft
5 / 8 km
1000 / 3000 ft
1500m / 5 km
500 / 1000 ft
800 / 1500m
200 / 500 ft
< 800m
< 200 ft
Simboli :   Temporali  Nebbia  Neve Forte  Precipitazioni Forti  Vento > 20 kt
SIGMETs :   Varie  Temporali  Ghiacco  Turbolenza  Onda orograficha  Ceneri Vulcaniche






- Altitudine del aeroporto : 465 ft
- Codice IATA : LEJ


EDDP - Leipzig Halle

ULTIMO METAR :
  • 180920Z 20008KT CAVOK 05/02 Q1023 NOSIG

METARs OBSOLETI :
  • 180850Z 20007KT CAVOK 04/01 Q1023 NOSIG
  • 180820Z 22008KT CAVOK 04/01 Q1023 NOSIG
  • 180750Z 20005KT CAVOK 03/01 Q1023 NOSIG
  • 180720Z 23007KT CAVOK 03/01 Q1023 NOSIG

TAF TAF EDDP
Valido dal 18 a 06 ore il 19 a 06 ore UTC


180500Z 1806/1906 24010KT 9999 SCT030
PROB30
TEMPO 1813/1818 4000 SHRASN BKN020CB



MetMap, La meteo Aeronautica in un colpo d'occhio ! - Copyright ORBIFLY Dicembre 2007 - Disclaimer

ORBIFLY MET'MAP TEAM :

Programmazione e sviluppo : Alexandra Zaïnal
Concezione : Baudouin d'Aumeries
Aiuto per la programmazione : Marc-Olivier Méhu
Supporto tecnico e logistico : Manuel Goepfert
Aiuto per la traduzione : Arnaldo La Scala

Contatto : metmap@orbifly.com




FONTI E CREDITI :

   NOAA